Boise, ID (83703)

1:49 PM MDT en Agosto 23, 2014 (GMT -0600)
Sunset | Change Station
CLOSE
Current Station
Estación meteorológica personal
Location: Boise, ID
Altura: 2677 ft
Estaciones meteorológicas cercanas

Alt 2677 ft 43.65 °N, 116.23 °W | Updated 5 minutes ago

Clear
Despejado
71.8 ° F
Sensación térmica 77 ° F
N
5.3
Viento Variable Viento desde Oeste

Hoy
Alta -- | Baja -- ° F
--% Posibilidad de precipitaciones
Ayer
Alta -- | Baja -- ° F
Precip. -- pul
6:58 AM 8:35 PM
Creciente menguante, 3% visible
Presión 29.99 pul
Visibilidad 10.0 Millas
Nubes Despejado
Índice de calor 77 ° F
Punto de rocío 50 ° F
Humedad 47%
Precipitaciones 0.00 pul
Espesor de la nieve 0 in
UV 9 de una escala de 12
Polen 7.30 de una escala de 12
PM2.5 Buena
Flu Activity No disponible.
METAR KBOI 231853Z 30012KT 10SM CLR 22/06 A3005 RMK AO2 SLP154 T02170061

More Conditions Fewer Conditions

Presión 29.99 pul
Visibilidad 10.0 Millas
Nubes Despejado
Índice de calor 77 ° F
Punto de rocío 50 ° F
Humedad 47%
Precipitaciones 0.00 pul
Espesor de la nieve 0 in
UV 9 de una escala de 12
Polen 7.30 de una escala de 12
PM2.5 Buena
Flu Activity No disponible.
METAR KBOI 231853Z 30012KT 10SM CLR 22/06 A3005 RMK AO2 SLP154 T02170061

More Conditions Fewer Conditions

10-Day Weather Forecast

Almanac

Astronomía

Aug. 23, 2014 Salida Puesta
Hora real 6:58 AM MDT 8:35 PM MDT
Crepúsculo civil 6:28 AM MDT 9:05 PM MDT
Crepúsculo náutico 5:51 AM MDT 9:42 PM MDT
Crepúsculo astronómico 5:12 AM MDT 10:21 PM MDT
Luna 5:17 AM MDT 7:23 PM MDT
Horas de luz 14h 37m
Horas de luz
13h 36m
Tomorrow will be 2m 48s shorter.
Creciente menguante, 3% of the Moon is Illuminated
Hoy
Creciente menguante
Ago 25
Nueva
Sep 2
Cuarto creciente
Sep 8
Luna llena
Sep 15
Cuarto menguante

Extremos de hoy

Máximos del estado Bajos del estado

Community

WunderPhotos

Upload Photos

1,746,583 ¡fotos cargadas!

WunderBlogs® & News

Nearby

Calidad del aire

  Calidad del aire Índice AQ Contaminante
Ayer Buena
OZONE
Ayer Buena
PM10
Real Buena
PM2.5
Sábado Buena
OZONE
Domingo Buena
OZONE
Lunes Buena
OZONE
Martes Buena
OZONE

Grosos de nieve

Estación Profundido Altura
Bogus Basin 0 in 6340 ft
Jackson Peak 1 in 7070 ft
Van Wyck 0 in 4920 ft
Atlanta Summit 0 in 7580 ft
Camas Creek Divide 1 in 5710 ft

Actividad de terremotos

Ciudad Distance Mag. Tiempo y dato
No hay informes recientes de la actividad sísmica.
Magnitud mínima muestra es 2,5.

Temperaturas de aguas costeras

Lugar Temperatura
Sin partes meteorológicos de las estaciones

Estaciones meteorológicas cercanas